createdAt,value
2024-01-12T00:00:43.253Z,23.28
2024-01-12T00:01:43.257Z,23.22
2024-01-12T00:02:57.772Z,23.34
2024-01-12T00:03:57.719Z,23.31
2024-01-12T00:04:57.773Z,23.31
2024-01-12T00:05:57.794Z,23.32
2024-01-12T00:06:57.815Z,23.28
2024-01-12T00:07:57.733Z,23.23
2024-01-12T00:08:57.786Z,23.29
2024-01-12T00:09:57.748Z,23.34
2024-01-12T00:10:57.710Z,23.28
2024-01-12T00:11:57.795Z,23.29
2024-01-12T00:12:57.761Z,23.29
2024-01-12T00:13:57.716Z,23.31
2024-01-12T00:14:57.845Z,23.34
2024-01-12T00:15:57.750Z,23.29
2024-01-12T00:16:57.724Z,23.28
2024-01-12T00:17:57.935Z,23.31
2024-01-12T00:18:57.729Z,23.28
2024-01-12T00:19:57.752Z,23.29
2024-01-12T00:20:57.816Z,23.29
2024-01-12T00:21:57.746Z,23.32
2024-01-12T00:22:57.741Z,23.31
2024-01-12T00:23:57.772Z,23.34
2024-01-12T00:24:57.755Z,23.26
2024-01-12T00:25:57.749Z,23.29
2024-01-12T00:26:57.762Z,23.31
2024-01-12T00:27:57.712Z,23.31
2024-01-12T00:28:57.734Z,23.31
2024-01-12T00:29:57.846Z,23.32
2024-01-12T00:30:57.863Z,23.32
2024-01-12T00:31:57.880Z,23.38
2024-01-12T00:32:58.028Z,23.33
2024-01-12T00:33:58.032Z,23.31
2024-01-12T00:34:58.112Z,23.30
2024-01-12T00:35:58.117Z,23.35
2024-01-12T00:36:58.143Z,23.35
2024-01-12T00:37:58.170Z,23.32
2024-01-12T00:38:58.339Z,23.33
2024-01-12T00:39:58.276Z,23.31
2024-01-12T00:40:58.320Z,23.35
2024-01-12T00:41:58.401Z,23.36
2024-01-12T00:42:58.407Z,23.33
2024-01-12T00:43:58.507Z,23.36
2024-01-12T00:44:58.572Z,23.32
2024-01-12T00:45:58.567Z,23.37
2024-01-12T00:46:58.616Z,23.36
2024-01-12T00:47:58.689Z,23.32
2024-01-12T00:48:58.789Z,23.35
2024-01-12T00:49:58.750Z,23.32
2024-01-12T00:50:58.906Z,23.33
2024-01-12T00:51:58.848Z,23.36
2024-01-12T00:52:58.887Z,23.40
2024-01-12T00:53:59.088Z,23.39
2024-01-12T00:54:58.992Z,23.37
2024-01-12T00:55:58.990Z,23.36
2024-01-12T00:56:59.179Z,23.37
2024-01-12T00:57:59.065Z,23.38
2024-01-12T00:58:59.063Z,23.36
2024-01-12T00:59:59.121Z,23.36
2024-01-12T01:00:59.202Z,23.36
2024-01-12T01:01:59.113Z,23.36
2024-01-12T01:02:59.113Z,23.39
2024-01-12T01:03:59.138Z,23.39
2024-01-12T01:04:59.101Z,23.35
2024-01-12T01:05:59.303Z,23.40
2024-01-12T01:06:59.207Z,23.40
2024-01-12T01:07:59.163Z,23.37
2024-01-12T01:08:59.197Z,23.41
2024-01-12T01:09:59.176Z,23.41
2024-01-12T01:10:59.215Z,23.40
2024-01-12T01:11:59.199Z,23.40
2024-01-12T01:12:59.202Z,23.41
2024-01-12T01:13:59.212Z,23.37
2024-01-12T01:14:59.271Z,23.37
2024-01-12T01:15:59.244Z,23.36
2024-01-12T01:16:59.299Z,23.41
2024-01-12T01:17:59.417Z,23.37
2024-01-12T01:18:59.558Z,23.43
2024-01-12T01:19:59.387Z,23.46
2024-01-12T01:20:59.401Z,23.43
2024-01-12T01:21:59.423Z,23.40
2024-01-12T01:22:59.341Z,23.36
2024-01-12T01:23:59.439Z,23.44
2024-01-12T01:24:59.378Z,23.41
2024-01-12T01:25:59.378Z,23.43
2024-01-12T01:26:59.480Z,23.41
2024-01-12T01:27:59.406Z,23.43
2024-01-12T01:28:59.412Z,23.46
2024-01-12T01:29:59.433Z,23.40
2024-01-12T01:30:59.558Z,23.39
2024-01-12T01:31:59.419Z,23.43
2024-01-12T01:32:59.522Z,23.41
2024-01-12T01:33:59.572Z,23.39
2024-01-12T01:34:59.446Z,23.46
2024-01-12T01:35:59.496Z,23.46
2024-01-12T01:36:59.468Z,23.44
2024-01-12T01:37:59.458Z,23.43
2024-01-12T01:38:59.493Z,23.46
2024-01-12T01:39:59.463Z,23.46
2024-01-12T01:40:59.498Z,23.47
2024-01-12T01:41:59.581Z,23.46
2024-01-12T01:42:59.516Z,23.46
2024-01-12T01:43:59.499Z,23.46
2024-01-12T01:44:59.559Z,23.41
2024-01-12T01:45:59.579Z,23.47
2024-01-12T01:47:00.430Z,23.45
2024-01-12T01:47:59.573Z,23.43
2024-01-12T01:48:59.594Z,23.47
2024-01-12T01:49:59.539Z,23.44
2024-01-12T01:50:59.667Z,23.51
2024-01-12T01:51:59.610Z,23.47
2024-01-12T01:52:59.598Z,23.49
2024-01-12T01:53:59.696Z,23.43
2024-01-12T01:54:59.633Z,23.51
2024-01-12T01:55:59.677Z,23.46
2024-01-12T01:56:59.714Z,23.47
2024-01-12T01:57:59.653Z,23.47
2024-01-12T01:58:59.646Z,23.47
2024-01-12T01:59:59.711Z,23.51
2024-01-12T02:00:59.700Z,23.48
2024-01-12T02:01:59.700Z,23.48
2024-01-12T02:02:59.737Z,23.49
2024-01-12T02:03:59.736Z,23.45
2024-01-12T02:04:59.731Z,23.45
2024-01-12T02:05:59.847Z,23.49
2024-01-12T02:06:59.797Z,23.54
2024-01-12T02:07:59.764Z,23.49
2024-01-12T02:08:59.831Z,23.48
2024-01-12T02:09:59.742Z,23.49
2024-01-12T02:10:59.766Z,23.51
2024-01-12T02:11:59.804Z,23.52
2024-01-12T02:12:59.796Z,23.49
2024-01-12T02:13:59.793Z,23.49
2024-01-12T02:14:59.842Z,23.55
2024-01-12T02:15:59.894Z,23.52
2024-01-12T02:16:59.853Z,23.52
2024-01-12T02:17:59.976Z,23.53
2024-01-12T02:18:59.976Z,23.49
2024-01-12T02:19:59.912Z,23.55
2024-01-12T02:20:59.987Z,23.52
2024-01-12T02:21:59.890Z,23.52
2024-01-12T02:22:59.916Z,23.53
2024-01-12T02:23:59.992Z,23.49
2024-01-12T02:24:59.946Z,23.50
2024-01-12T02:25:59.931Z,23.55
2024-01-12T02:27:00.042Z,23.52
2024-01-12T02:27:59.950Z,23.50
2024-01-12T02:28:59.966Z,23.51
2024-01-12T02:30:00.066Z,23.56
2024-01-12T02:31:00.073Z,23.55
2024-01-12T02:32:00.052Z,23.52
2024-01-12T02:33:00.064Z,23.57
2024-01-12T02:34:00.184Z,23.52
2024-01-12T02:35:00.065Z,23.56
2024-01-12T02:36:00.126Z,23.56
2024-01-12T02:37:00.081Z,23.54
2024-01-12T02:38:00.077Z,23.55
2024-01-12T02:39:00.135Z,23.53
2024-01-12T02:40:00.146Z,23.53
2024-01-12T02:41:00.149Z,23.54
2024-01-12T02:42:00.259Z,23.56
2024-01-12T02:43:00.162Z,23.54
2024-01-12T02:44:00.182Z,23.53
2024-01-12T02:45:00.272Z,23.56
2024-01-12T02:46:00.187Z,23.57
2024-01-12T02:47:00.201Z,23.57
2024-01-12T02:48:00.291Z,23.60
2024-01-12T02:49:00.270Z,23.54
2024-01-12T02:50:00.253Z,23.54
2024-01-12T02:51:00.238Z,23.57
2024-01-12T02:52:00.233Z,23.52
2024-01-12T02:53:00.234Z,23.50
2024-01-12T02:54:00.435Z,23.56
2024-01-12T02:55:00.277Z,23.53
2024-01-12T02:56:00.292Z,23.54
2024-01-12T02:57:00.403Z,23.50
2024-01-12T02:58:00.340Z,23.50
2024-01-12T02:59:00.302Z,23.52
2024-01-12T03:00:02.472Z,23.53
2024-01-12T03:01:00.466Z,23.47
2024-01-12T03:02:00.372Z,23.50
2024-01-12T03:03:00.464Z,23.52
2024-01-12T03:04:00.408Z,23.54
2024-01-12T03:05:00.378Z,23.49
2024-01-12T03:06:00.481Z,23.52
2024-01-12T03:07:00.311Z,23.49
2024-01-12T03:08:00.333Z,23.49
2024-01-12T03:09:00.474Z,23.49
2024-01-12T03:10:00.654Z,23.49
2024-01-12T03:11:00.365Z,23.46
2024-01-12T03:12:00.508Z,23.43
2024-01-12T03:13:00.411Z,23.45
2024-01-12T03:14:00.369Z,23.42
2024-01-12T03:15:00.565Z,23.45
2024-01-12T03:16:00.376Z,23.45
2024-01-12T03:17:00.388Z,23.41
2024-01-12T03:18:00.487Z,23.46
2024-01-12T03:19:00.596Z,23.42
2024-01-12T03:20:00.369Z,23.40
2024-01-12T03:21:00.507Z,23.41
2024-01-12T03:22:00.370Z,23.44
2024-01-12T03:23:00.381Z,23.41
2024-01-12T03:24:00.562Z,23.40
2024-01-12T03:25:00.382Z,23.40
2024-01-12T03:26:00.383Z,23.43
2024-01-12T03:27:00.536Z,23.41
2024-01-12T03:28:00.460Z,23.37
2024-01-12T03:29:00.388Z,23.38
2024-01-12T03:30:00.531Z,23.38
2024-01-12T03:31:00.408Z,23.37
2024-01-12T03:32:00.377Z,23.35
2024-01-12T03:33:00.534Z,23.35
2024-01-12T03:34:00.495Z,23.35
2024-01-12T03:35:00.482Z,23.30
2024-01-12T03:36:00.514Z,23.35
2024-01-12T03:37:00.421Z,23.36
2024-01-12T03:38:00.359Z,23.32
2024-01-12T03:39:00.459Z,23.33
2024-01-12T03:40:00.394Z,23.29
2024-01-12T03:41:00.407Z,23.32
2024-01-12T03:42:00.443Z,23.31
2024-01-12T03:43:00.403Z,23.29
2024-01-12T03:44:00.405Z,23.26
2024-01-12T03:45:00.594Z,23.28
2024-01-12T03:46:00.422Z,23.22
2024-01-12T03:47:00.420Z,23.22
2024-01-12T03:48:00.567Z,23.26
2024-01-12T03:49:00.457Z,23.27
2024-01-12T03:50:00.418Z,23.22
2024-01-12T03:51:00.519Z,23.16
2024-01-12T03:52:14.499Z,23.24
2024-01-12T03:53:01.400Z,23.19
2024-01-12T03:54:00.605Z,23.22
2024-01-12T03:55:00.396Z,23.22
2024-01-12T03:56:00.377Z,23.24
2024-01-12T03:57:00.438Z,23.22
2024-01-12T03:58:00.411Z,23.21
2024-01-12T03:59:00.406Z,23.20
2024-01-12T04:00:00.653Z,23.23
2024-01-12T04:01:00.549Z,23.20
2024-01-12T04:02:00.547Z,23.20
2024-01-12T04:03:00.701Z,23.20
2024-01-12T04:04:00.718Z,23.21
2024-01-12T04:05:00.761Z,23.20
2024-01-12T04:06:00.902Z,23.16
2024-01-12T04:07:00.880Z,23.17
2024-01-12T04:08:00.929Z,23.19
2024-01-12T04:09:01.069Z,23.20
2024-01-12T04:10:01.085Z,23.20
2024-01-12T04:11:01.098Z,23.17
2024-01-12T04:12:01.316Z,23.21
2024-01-12T04:13:01.216Z,23.19
2024-01-12T04:14:01.295Z,23.16
2024-01-12T04:15:01.429Z,23.19
2024-01-12T04:16:01.400Z,23.16
2024-01-12T04:17:01.472Z,23.13
2024-01-12T04:18:01.660Z,23.17
2024-01-12T04:19:01.720Z,23.14
2024-01-12T04:20:01.677Z,23.19
2024-01-12T04:21:01.789Z,23.20
2024-01-12T04:22:01.803Z,23.17
2024-01-12T04:23:01.841Z,23.17
2024-01-12T04:24:01.961Z,23.15
2024-01-12T04:25:01.971Z,23.13
2024-01-12T04:26:02.031Z,23.09
2024-01-12T04:27:02.187Z,23.10
2024-01-12T04:28:02.186Z,23.14
2024-01-12T04:29:02.206Z,23.06
2024-01-12T04:30:02.389Z,23.10
2024-01-12T04:31:09.856Z,23.15
2024-01-12T04:32:09.802Z,23.10
2024-01-12T04:33:09.882Z,23.09
2024-01-12T04:34:09.907Z,23.10
2024-01-12T04:35:09.809Z,23.12
2024-01-12T04:36:09.817Z,23.09
2024-01-12T04:37:09.811Z,23.08
2024-01-12T04:38:09.781Z,23.06
2024-01-12T04:39:09.834Z,23.14
2024-01-12T04:40:09.811Z,23.14
2024-01-12T04:41:09.801Z,23.08
2024-01-12T04:42:09.818Z,23.13
2024-01-12T04:43:09.784Z,23.04
2024-01-12T04:44:09.822Z,23.11
2024-01-12T04:45:09.878Z,23.11
2024-01-12T04:46:09.799Z,23.05
2024-01-12T04:47:09.862Z,23.10
2024-01-12T04:48:09.872Z,23.09
2024-01-12T04:49:09.878Z,23.07
2024-01-12T04:50:09.806Z,23.07
2024-01-12T04:51:09.851Z,23.13
2024-01-12T04:52:09.806Z,23.05
2024-01-12T04:53:09.824Z,23.06
2024-01-12T04:54:09.887Z,23.10
2024-01-12T04:55:09.850Z,23.06
2024-01-12T04:56:09.842Z,23.03
2024-01-12T04:57:09.923Z,23.10
2024-01-12T04:58:09.915Z,23.10
2024-01-12T04:59:09.980Z,23.09
2024-01-12T05:00:10.102Z,23.06
2024-01-12T05:01:10.064Z,23.09
2024-01-12T05:02:10.191Z,23.02
2024-01-12T05:03:11.638Z,22.76
2024-01-12T05:04:10.239Z,22.71
2024-01-12T05:05:10.175Z,22.68
2024-01-12T05:06:10.161Z,22.53
2024-01-12T05:07:10.200Z,22.49
2024-01-12T05:08:10.124Z,22.44
2024-01-12T05:09:10.328Z,22.35
2024-01-12T05:10:10.138Z,22.31
2024-01-12T05:11:10.146Z,22.11
2024-01-12T05:12:10.214Z,22.06
2024-01-12T05:13:10.159Z,22.00
2024-01-12T05:14:10.124Z,21.89
2024-01-12T05:15:10.212Z,22.00
2024-01-12T05:16:10.165Z,21.95
2024-01-12T05:17:10.166Z,21.88
2024-01-12T05:19:10.268Z,21.57
2024-01-12T05:20:10.267Z,21.64
2024-01-12T05:21:10.218Z,21.58
2024-01-12T05:22:10.177Z,21.72
2024-01-12T05:23:10.175Z,21.39
2024-01-12T05:24:10.228Z,21.35
2024-01-12T05:25:10.172Z,21.28
2024-01-12T05:26:10.197Z,21.40
2024-01-12T05:27:10.239Z,21.30
2024-01-12T05:28:10.213Z,21.30
2024-01-12T05:29:10.196Z,21.05
2024-01-12T05:30:10.389Z,21.14
2024-01-12T05:31:10.280Z,21.20
2024-01-12T05:32:10.173Z,21.20
2024-01-12T05:33:10.218Z,21.30
2024-01-12T05:34:10.268Z,21.28
2024-01-12T05:36:10.223Z,21.33
2024-01-12T05:37:10.214Z,21.38
2024-01-12T05:38:10.175Z,21.46
2024-01-12T05:39:10.266Z,21.46
2024-01-12T05:40:10.205Z,21.44
2024-01-12T05:41:10.186Z,21.43
2024-01-12T05:42:10.225Z,21.45
2024-01-12T05:43:10.216Z,21.48
2024-01-12T05:44:10.188Z,21.48
2024-01-12T05:45:10.224Z,21.49
2024-01-12T05:46:10.232Z,21.52
2024-01-12T05:47:10.242Z,21.61
2024-01-12T05:48:10.357Z,21.61
2024-01-12T05:49:10.266Z,21.67
2024-01-12T05:50:10.204Z,21.69
2024-01-12T05:51:10.282Z,21.64
2024-01-12T05:52:10.246Z,21.67
2024-01-12T05:53:10.230Z,21.66
2024-01-12T05:54:10.280Z,21.69
2024-01-12T05:55:10.226Z,21.69
2024-01-12T05:56:10.254Z,21.72
2024-01-12T05:57:10.341Z,21.75
2024-01-12T05:58:10.238Z,21.68
2024-01-12T05:59:10.256Z,21.75
2024-01-12T06:00:10.295Z,21.77
2024-01-12T06:01:11.725Z,21.77
2024-01-12T06:02:10.235Z,21.78
2024-01-12T06:03:10.361Z,21.87
2024-01-12T06:04:10.318Z,21.87
2024-01-12T06:05:10.306Z,21.86
2024-01-12T06:06:10.357Z,21.86
2024-01-12T06:07:10.245Z,21.89
2024-01-12T06:08:11.767Z,21.92
2024-01-12T06:09:10.285Z,21.92
2024-01-12T06:10:10.260Z,21.92
2024-01-12T06:11:10.248Z,21.96
2024-01-12T06:12:10.253Z,22.00
2024-01-12T06:13:10.230Z,21.99
2024-01-12T06:14:10.261Z,22.00
2024-01-12T06:15:10.288Z,22.03
2024-01-12T06:16:10.232Z,22.08
2024-01-12T06:17:10.261Z,22.08
2024-01-12T06:18:10.380Z,22.04
2024-01-12T06:19:10.400Z,22.03
2024-01-12T06:20:10.277Z,22.08
2024-01-12T06:21:10.349Z,22.10
2024-01-12T06:22:10.278Z,22.16
2024-01-12T06:23:10.276Z,22.13
2024-01-12T06:24:10.334Z,22.17
2024-01-12T06:25:10.259Z,22.14
2024-01-12T06:26:10.261Z,22.18
2024-01-12T06:27:10.449Z,22.13
2024-01-12T06:28:10.278Z,22.13
2024-01-12T06:29:10.247Z,22.16
2024-01-12T06:30:10.426Z,22.11
2024-01-12T06:31:10.421Z,22.17
2024-01-12T06:32:11.104Z,22.16
2024-01-12T06:33:10.383Z,21.91
2024-01-12T06:34:10.382Z,22.13
2024-01-12T06:35:10.293Z,21.63
2024-01-12T06:36:10.311Z,21.53
2024-01-12T06:37:10.287Z,20.66
2024-01-12T06:38:10.270Z,20.28
2024-01-12T06:39:10.336Z,20.58
2024-01-12T06:40:10.323Z,19.79
2024-01-12T06:41:10.310Z,19.78
2024-01-12T06:42:10.358Z,19.45
2024-01-12T06:43:10.390Z,19.85
2024-01-12T06:44:10.317Z,19.74
2024-01-12T06:45:10.351Z,19.92
2024-01-12T06:46:10.346Z,19.58
2024-01-12T06:47:10.351Z,18.17
2024-01-12T06:48:10.436Z,18.09
2024-01-12T06:49:10.391Z,18.77
2024-01-12T06:50:10.316Z,18.85
2024-01-12T06:51:10.511Z,19.69
2024-01-12T06:52:10.329Z,19.77
2024-01-12T06:53:10.872Z,20.33
2024-01-12T06:54:10.882Z,20.49
2024-01-12T06:55:10.506Z,20.56
2024-01-12T06:56:10.542Z,20.76
2024-01-12T06:57:10.629Z,20.61
2024-01-12T06:58:10.848Z,20.85
2024-01-12T06:59:10.648Z,21.06
2024-01-12T07:00:10.681Z,21.16
2024-01-12T07:01:10.883Z,21.21
2024-01-12T07:02:10.704Z,21.19
2024-01-12T07:03:10.963Z,21.30
2024-01-12T07:04:10.897Z,21.20
2024-01-12T07:05:10.827Z,21.21
2024-01-12T07:06:11.503Z,21.21
2024-01-12T07:07:11.419Z,21.18
2024-01-12T07:08:11.040Z,21.26
2024-01-12T07:09:11.179Z,21.26
2024-01-12T07:10:11.173Z,21.26
2024-01-12T07:11:11.349Z,21.24
2024-01-12T07:12:11.317Z,21.25
2024-01-12T07:13:11.372Z,21.14
2024-01-12T07:14:11.846Z,21.17
2024-01-12T07:15:11.609Z,21.21
2024-01-12T07:16:11.497Z,21.30
2024-01-12T07:17:11.591Z,21.24
2024-01-12T07:18:11.772Z,21.30
2024-01-12T07:19:12.170Z,21.24
2024-01-12T07:20:12.366Z,21.21
2024-01-12T07:21:12.001Z,21.14
2024-01-12T07:22:12.368Z,21.18
2024-01-12T07:23:11.949Z,21.08
2024-01-12T07:24:12.082Z,21.06
2024-01-12T07:25:12.145Z,21.05
2024-01-12T07:26:12.187Z,21.05
2024-01-12T07:27:12.421Z,20.98
2024-01-12T07:28:12.303Z,21.03
2024-01-12T07:29:12.398Z,21.02
2024-01-12T07:30:12.598Z,21.29
2024-01-12T07:31:12.564Z,21.11
2024-01-12T07:32:12.963Z,21.08
2024-01-12T07:33:12.788Z,21.07
2024-01-12T07:34:12.816Z,20.90
2024-01-12T07:35:12.813Z,21.10
2024-01-12T07:36:12.886Z,21.14
2024-01-12T07:37:12.947Z,20.92
2024-01-12T07:38:12.934Z,20.93
2024-01-12T07:39:12.999Z,20.80
2024-01-12T07:40:13.054Z,20.90
2024-01-12T07:41:13.373Z,21.08
2024-01-12T07:42:13.161Z,21.13
2024-01-12T07:43:13.181Z,21.44
2024-01-12T07:44:13.215Z,21.40
2024-01-12T07:45:13.353Z,21.37
2024-01-12T07:46:13.360Z,21.55
2024-01-12T07:47:13.293Z,21.68
2024-01-12T07:48:13.520Z,21.77
2024-01-12T07:49:13.389Z,21.80
2024-01-12T07:50:13.335Z,21.89
2024-01-12T07:51:13.940Z,22.02
2024-01-12T07:52:17.118Z,22.04
2024-01-12T07:53:14.486Z,22.14
2024-01-12T07:54:13.489Z,22.14
2024-01-12T07:55:13.474Z,22.20
2024-01-12T07:56:13.940Z,22.18
2024-01-12T07:57:13.482Z,22.16
2024-01-12T07:58:13.506Z,22.00
2024-01-12T07:59:13.480Z,21.80
2024-01-12T08:00:13.544Z,20.73
2024-01-12T08:01:13.873Z,21.21
2024-01-12T08:02:13.522Z,20.46
2024-01-12T08:03:13.926Z,20.70
2024-01-12T08:04:13.621Z,20.67
2024-01-12T08:05:13.772Z,18.67
2024-01-12T08:06:13.794Z,19.10
2024-01-12T08:07:13.971Z,19.54
2024-01-12T08:08:13.902Z,20.02
2024-01-12T08:09:13.853Z,20.24
2024-01-12T08:10:13.904Z,20.44
2024-01-12T08:11:23.373Z,20.61
2024-01-12T08:12:14.980Z,20.69
2024-01-12T08:13:15.488Z,20.94
2024-01-12T08:14:13.930Z,21.00
2024-01-12T08:15:14.071Z,21.08
2024-01-12T08:16:13.955Z,21.26
2024-01-12T08:17:13.999Z,21.28
2024-01-12T08:18:14.483Z,21.37
2024-01-12T08:19:13.984Z,21.24
2024-01-12T08:20:13.990Z,21.23
2024-01-12T08:21:14.017Z,21.15
2024-01-12T08:22:14.045Z,21.13
2024-01-12T08:23:14.355Z,21.09
2024-01-12T08:24:14.056Z,21.11
2024-01-12T08:25:14.143Z,21.11
2024-01-12T08:26:15.062Z,21.10
2024-01-12T08:27:15.655Z,21.21
2024-01-12T08:28:14.167Z,21.19
2024-01-12T08:29:14.168Z,21.27
2024-01-12T08:30:14.593Z,21.12
2024-01-12T08:31:14.472Z,21.07
2024-01-12T08:32:14.172Z,21.08
2024-01-12T08:33:14.345Z,21.01
2024-01-12T08:34:14.324Z,20.98
2024-01-12T08:35:14.192Z,20.94
2024-01-12T08:36:14.209Z,21.06
2024-01-12T08:37:14.404Z,20.96
2024-01-12T08:38:14.160Z,21.08
2024-01-12T08:39:14.122Z,21.06
2024-01-12T08:40:14.178Z,20.80
2024-01-12T08:41:14.395Z,20.69
2024-01-12T08:42:14.194Z,20.17
2024-01-12T08:43:14.145Z,20.38
2024-01-12T08:44:14.167Z,20.36
2024-01-12T08:45:14.152Z,20.78
2024-01-12T08:46:14.425Z,20.45
2024-01-12T08:47:14.138Z,20.36
2024-01-12T08:48:14.428Z,20.36
2024-01-12T08:49:14.312Z,20.10
2024-01-12T08:50:14.175Z,20.04
2024-01-12T08:51:14.203Z,19.96
2024-01-12T08:52:14.187Z,19.86
2024-01-12T08:53:14.187Z,19.73
2024-01-12T08:54:14.214Z,19.45
2024-01-12T08:55:14.425Z,19.28
2024-01-12T08:56:14.184Z,19.33
2024-01-12T08:57:14.262Z,19.34
2024-01-12T08:58:14.210Z,19.34
2024-01-12T08:59:14.174Z,19.21
2024-01-12T09:00:14.322Z,19.15
2024-01-12T09:01:14.449Z,19.12
2024-01-12T09:02:14.340Z,19.00
2024-01-12T09:03:14.277Z,19.01
2024-01-12T09:04:14.329Z,18.88
2024-01-12T09:05:14.268Z,18.87
2024-01-12T09:06:14.580Z,18.94
2024-01-12T09:07:14.301Z,18.78
2024-01-12T09:08:14.396Z,18.72
2024-01-12T09:09:14.293Z,18.75
2024-01-12T09:10:14.434Z,18.84
2024-01-12T09:11:14.247Z,18.63
2024-01-12T09:12:14.355Z,18.54
2024-01-12T09:13:14.328Z,18.36
2024-01-12T09:14:14.432Z,18.29
2024-01-12T09:15:14.981Z,18.15
2024-01-12T09:16:14.559Z,18.35
2024-01-12T09:17:15.472Z,18.48
2024-01-12T09:18:14.751Z,18.47
2024-01-12T09:19:14.702Z,18.59
2024-01-12T09:20:14.728Z,18.54
2024-01-12T09:21:14.823Z,18.63
2024-01-12T09:22:14.984Z,18.62
2024-01-12T09:23:14.818Z,18.57
2024-01-12T09:24:14.994Z,18.69
2024-01-12T09:25:14.921Z,18.88
2024-01-12T09:26:14.951Z,19.48
2024-01-12T09:27:15.072Z,19.42
2024-01-12T09:28:15.522Z,19.36
2024-01-12T09:29:15.264Z,19.60
2024-01-12T09:30:15.373Z,19.95
2024-01-12T09:31:15.518Z,19.74
2024-01-12T09:32:15.362Z,19.55
2024-01-12T09:33:15.510Z,19.12
2024-01-12T09:34:15.737Z,17.99
2024-01-12T09:35:15.544Z,17.75
2024-01-12T09:36:15.853Z,17.87
2024-01-12T09:37:15.576Z,18.48
2024-01-12T09:38:15.724Z,19.38
2024-01-12T09:39:16.228Z,19.70
2024-01-12T09:40:15.829Z,19.17
2024-01-12T09:41:15.815Z,21.11
2024-01-12T09:42:15.866Z,20.62
2024-01-12T09:43:15.914Z,20.79
2024-01-12T09:44:15.897Z,21.59
2024-01-12T09:45:21.454Z,22.06
2024-01-12T09:46:16.926Z,22.02
2024-01-12T09:47:15.947Z,22.43
2024-01-12T09:48:16.074Z,22.69
2024-01-12T09:49:16.499Z,22.69
2024-01-12T09:50:15.941Z,23.36
2024-01-12T09:51:15.993Z,23.17
2024-01-12T09:52:15.961Z,23.44
2024-01-12T09:53:15.942Z,23.38
2024-01-12T09:54:16.421Z,23.75
2024-01-12T09:55:15.943Z,23.63
2024-01-12T09:56:17.273Z,23.76
2024-01-12T09:57:15.995Z,23.79
2024-01-12T09:58:15.952Z,23.84
2024-01-12T09:59:15.991Z,23.95
2024-01-12T10:00:16.151Z,23.79
2024-01-12T10:01:16.584Z,23.90
2024-01-12T10:02:16.105Z,23.99
2024-01-12T10:03:16.145Z,23.86
2024-01-12T10:04:16.248Z,23.97
2024-01-12T10:05:16.126Z,23.59
2024-01-12T10:06:16.592Z,23.37
2024-01-12T10:07:16.236Z,22.06
2024-01-12T10:08:16.424Z,20.90
2024-01-12T10:09:16.302Z,21.05
2024-01-12T10:10:16.360Z,20.60
2024-01-12T10:11:16.369Z,20.57
2024-01-12T10:12:16.420Z,20.34
2024-01-12T10:13:16.457Z,20.21
2024-01-12T10:14:16.446Z,20.23
2024-01-12T10:15:16.546Z,19.78
2024-01-12T10:16:16.523Z,19.91
2024-01-12T10:17:16.606Z,19.78
2024-01-12T10:18:17.143Z,19.85
2024-01-12T10:19:16.865Z,19.47
2024-01-12T10:20:16.781Z,19.98
2024-01-12T10:21:16.887Z,19.73
2024-01-12T10:22:16.933Z,19.41
2024-01-12T10:23:16.940Z,19.31
2024-01-12T10:24:17.072Z,19.32
2024-01-12T10:25:17.074Z,19.47
2024-01-12T10:26:17.451Z,19.38
2024-01-12T10:27:17.228Z,19.42
2024-01-12T10:28:17.453Z,19.59
2024-01-12T10:29:17.373Z,19.11
2024-01-12T10:30:17.485Z,19.36
2024-01-12T10:31:17.974Z,19.57
2024-01-12T10:32:17.728Z,19.87
2024-01-12T10:33:17.629Z,19.92
2024-01-12T10:34:18.228Z,20.32
2024-01-12T10:35:17.689Z,20.17
2024-01-12T10:36:17.639Z,20.44
2024-01-12T10:37:17.677Z,20.66
2024-01-12T10:38:17.752Z,20.88
2024-01-12T10:39:17.709Z,21.19
2024-01-12T10:40:17.695Z,21.32
2024-01-12T10:41:17.962Z,21.41
2024-01-12T10:42:17.835Z,21.55
2024-01-12T10:43:17.933Z,21.71
2024-01-12T10:44:17.952Z,21.86
2024-01-12T10:45:17.958Z,21.88
2024-01-12T10:46:17.990Z,22.06
2024-01-12T10:47:19.018Z,22.41
2024-01-12T10:48:18.620Z,22.29
2024-01-12T10:49:18.265Z,22.53
2024-01-12T10:50:18.153Z,22.65
2024-01-12T10:51:18.187Z,22.58
2024-01-12T10:52:20.067Z,22.72
2024-01-12T10:53:18.444Z,22.67
2024-01-12T10:54:18.372Z,22.81
2024-01-12T10:55:18.430Z,22.81
2024-01-12T10:56:18.443Z,22.56
2024-01-12T10:57:18.434Z,22.66
2024-01-12T10:58:18.484Z,22.69
2024-01-12T10:59:18.467Z,22.57
2024-01-12T11:00:18.552Z,22.71
2024-01-12T11:01:18.470Z,22.78
2024-01-12T11:02:18.499Z,22.89
2024-01-12T11:03:18.740Z,22.86
2024-01-12T11:04:18.648Z,22.77
2024-01-12T11:05:18.690Z,22.78
2024-01-12T11:06:18.868Z,22.93
2024-01-12T11:07:19.043Z,23.04
2024-01-12T11:08:19.004Z,22.96
2024-01-12T11:09:18.918Z,23.17
2024-01-12T11:10:18.965Z,23.13
2024-01-12T11:11:19.062Z,23.20
2024-01-12T11:12:19.103Z,23.18
2024-01-12T11:13:19.149Z,23.15
2024-01-12T11:14:19.470Z,23.10
2024-01-12T11:15:19.337Z,23.27
2024-01-12T11:16:19.471Z,23.37
2024-01-12T11:17:19.435Z,23.24
2024-01-12T11:18:19.494Z,23.49
2024-01-12T11:19:19.606Z,23.21
2024-01-12T11:20:20.113Z,23.23
2024-01-12T11:21:19.664Z,23.33
2024-01-12T11:22:19.649Z,23.25
2024-01-12T11:23:19.767Z,23.25
2024-01-12T11:24:19.741Z,23.28
2024-01-12T11:25:20.082Z,23.30
2024-01-12T11:26:19.992Z,23.43
2024-01-12T11:27:19.912Z,24.02
2024-01-12T11:28:20.015Z,24.11
2024-01-12T11:29:20.050Z,23.84
2024-01-12T11:30:20.317Z,23.93
2024-01-12T11:31:20.520Z,23.48
2024-01-12T11:32:20.266Z,23.34
2024-01-12T11:33:20.509Z,23.89
2024-01-12T11:34:20.816Z,23.60
2024-01-12T11:35:20.512Z,23.64
2024-01-12T11:36:20.462Z,23.54
2024-01-12T11:37:20.487Z,23.37
2024-01-12T11:38:20.614Z,23.53
2024-01-12T11:39:20.600Z,23.50
2024-01-12T11:40:20.655Z,23.57
2024-01-12T11:41:20.696Z,23.63
2024-01-12T11:42:20.785Z,23.61
2024-01-12T11:43:20.822Z,23.74
2024-01-12T11:44:20.910Z,23.59
2024-01-12T11:45:21.008Z,23.73
2024-01-12T11:46:21.032Z,23.59
2024-01-12T11:47:21.130Z,23.65
2024-01-12T11:48:21.158Z,23.67
2024-01-12T11:49:21.216Z,23.63
2024-01-12T11:50:21.536Z,23.74
2024-01-12T11:51:21.053Z,23.84
2024-01-12T11:52:21.466Z,24.09
2024-01-12T11:53:21.172Z,23.91
2024-01-12T11:54:21.148Z,24.20
2024-01-12T11:55:21.274Z,24.01
2024-01-12T11:56:21.517Z,23.89
2024-01-12T11:57:21.391Z,23.97
2024-01-12T11:58:21.501Z,23.95
2024-01-12T11:59:21.389Z,24.03
2024-01-12T12:00:21.313Z,23.97
2024-01-12T12:01:21.501Z,23.95
2024-01-12T12:02:21.472Z,23.88
2024-01-12T12:03:21.620Z,24.01
2024-01-12T12:04:21.525Z,24.10
2024-01-12T12:05:21.684Z,24.19
2024-01-12T12:06:22.198Z,24.09
2024-01-12T12:07:21.637Z,24.01
2024-01-12T12:08:21.549Z,24.09
2024-01-12T12:09:21.522Z,24.31
2024-01-12T12:10:27.065Z,24.26
2024-01-12T12:11:22.642Z,24.16
2024-01-12T12:12:21.504Z,24.23
2024-01-12T12:13:21.571Z,24.39
2024-01-12T12:14:21.523Z,24.33
2024-01-12T12:15:22.495Z,24.41
2024-01-12T12:16:21.964Z,24.58
2024-01-12T12:17:21.616Z,24.88
2024-01-12T12:18:21.733Z,24.45
2024-01-12T12:19:23.919Z,23.74
2024-01-12T12:20:21.553Z,23.81
2024-01-12T12:21:21.540Z,23.65
2024-01-12T12:22:21.573Z,23.52
2024-01-12T12:23:21.626Z,23.39
2024-01-12T12:24:21.541Z,23.22
2024-01-12T12:25:21.579Z,23.16
2024-01-12T12:26:22.019Z,23.12
2024-01-12T12:27:21.548Z,22.88
2024-01-12T12:28:21.584Z,22.81
2024-01-12T12:29:21.593Z,22.80
2024-01-12T12:30:21.668Z,22.68
2024-01-12T12:31:21.607Z,22.68
2024-01-12T12:32:21.630Z,22.51
2024-01-12T12:33:21.666Z,22.28
2024-01-12T12:34:21.729Z,22.28
2024-01-12T12:35:21.906Z,22.22
2024-01-12T12:36:21.659Z,22.22
2024-01-12T12:37:21.608Z,22.07
2024-01-12T12:38:21.609Z,22.01
2024-01-12T12:39:21.618Z,21.89
2024-01-12T12:40:21.674Z,21.79
2024-01-12T12:41:21.618Z,21.79
2024-01-12T12:42:21.594Z,21.58
2024-01-12T12:43:21.610Z,21.60
2024-01-12T12:44:21.677Z,21.61
2024-01-12T12:45:21.601Z,21.48
2024-01-12T12:46:21.613Z,21.40
2024-01-12T12:47:21.644Z,21.49
2024-01-12T12:48:21.685Z,21.45
2024-01-12T12:49:21.866Z,21.34
2024-01-12T12:50:21.669Z,21.35
2024-01-12T12:51:21.621Z,21.22
2024-01-12T12:52:21.622Z,21.25
2024-01-12T12:53:21.660Z,21.22
2024-01-12T12:54:21.687Z,21.31
2024-01-12T12:55:21.620Z,21.26